Time;durP1;ratioP1;P1;durP2;ratioP2;P2;SDS_P1;SDS_P2;PMS_P1;PMS_P2;Temp;Humidity;BMP_temperature;BMP_pressure;BME280_temperature;BME280_humidity;BME280_pressure;Samples;Min_cycle;Max_cycle;Signal;HPM_P1;HPM_P2
2023/03/21 00:02:05;;;;;;;2.73;2.53;;;12.90;45.10;;;;;;20591;6812;277990;-71
2023/03/21 00:04:31;;;;;;;2.90;2.70;;;12.80;45.00;;;;;;20605;6812;335554;-70
2023/03/21 00:06:56;;;;;;;2.93;2.63;;;13.20;44.80;;;;;;20611;6812;288724;-69
2023/03/21 00:09:23;;;;;;;3.10;2.90;;;13.50;44.20;;;;;;20557;6842;277855;-69
2023/03/21 00:11:49;;;;;;;2.33;2.23;;;13.60;44.10;;;;;;20871;6812;116064;-70
2023/03/21 00:14:18;;;;;;;2.90;2.70;;;13.40;44.10;;;;;;20512;6842;312676;-71
2023/03/21 00:16:40;;;;;;;2.60;2.50;;;13.40;44.50;;;;;;20822;6812;117527;-70
2023/03/21 00:19:06;;;;;;;3.10;2.90;;;13.30;44.60;;;;;;20617;6812;307211;-70
2023/03/21 00:21:32;;;;;;;2.90;2.70;;;13.30;44.60;;;;;;20520;6842;308693;-70
2023/03/21 00:23:57;;;;;;;3.28;3.08;;;13.50;44.20;;;;;;20589;6812;308368;-71
2023/03/21 00:26:22;;;;;;;3.10;2.90;;;13.70;44.00;;;;;;20730;6842;120401;-70
2023/03/21 00:28:48;;;;;;;3.00;2.80;;;13.50;44.00;;;;;;20834;6812;122136;-70
2023/03/21 00:31:14;;;;;;;3.33;3.13;;;13.20;44.90;;;;;;20608;6812;277640;-70
2023/03/21 00:33:40;;;;;;;3.80;3.20;;;13.10;44.80;;;;;;20513;6842;278696;-69
2023/03/21 00:36:06;;;;;;;2.80;2.70;;;13.20;44.40;;;;;;20800;6812;117464;-70
2023/03/21 00:38:32;;;;;;;3.10;2.90;;;13.20;44.40;;;;;;20813;6812;120306;-70
2023/03/21 00:40:57;;;;;;;2.97;2.77;;;12.90;44.70;;;;;;20719;6842;121151;-71
2023/03/21 00:43:29;;;;;;;3.17;2.97;;;12.80;46.40;;;;;;20611;6812;307228;-71
2023/03/21 00:45:50;;;;;;;3.80;3.50;;;13.10;45.30;;;;;;20609;6810;336128;-73
2023/03/21 00:48:16;;;;;;;3.50;3.30;;;13.10;45.20;;;;;;20648;6811;117486;-71
2023/03/21 00:50:44;;;;;;;3.50;3.30;;;13.10;45.40;;;;;;20609;6811;307297;-71
2023/03/21 00:53:09;;;;;;;4.27;3.77;;;13.10;45.40;;;;;;20816;6812;117453;-71
2023/03/21 00:55:34;;;;;;;3.37;3.20;;;13.00;45.30;;;;;;20729;6842;117550;-70
2023/03/21 00:58:00;;;;;;;3.90;3.62;;;12.70;45.60;;;;;;20585;6812;314247;-71
2023/03/21 01:00:26;;;;;;;4.12;3.72;;;12.90;45.90;;;;;;20827;6812;120298;-71
2023/03/21 01:02:57;;;;;;;3.63;3.43;;;12.80;45.60;;;;;;20826;6812;120715;-71
2023/03/21 01:06:18;;;;;;;3.70;3.30;;;12.60;45.80;;;;;;20724;6842;119277;-71
2023/03/21 01:07:56;;;;;;;3.10;3.00;;;12.40;46.00;;;;;;20461;6812;122166;-71
2023/03/21 01:10:22;;;;;;;5.33;3.23;;;12.20;46.20;;;;;;20723;6842;117376;-71
2023/03/21 01:12:48;;;;;;;4.00;3.80;;;12.30;46.60;;;;;;20606;6812;295816;-71
2023/03/21 01:15:16;;;;;;;4.00;3.70;;;12.60;46.70;;;;;;20517;6842;338023;-71
2023/03/21 01:17:41;;;;;;;4.00;3.70;;;12.60;46.40;;;;;;20607;6812;336099;-71
2023/03/21 01:20:09;;;;;;;3.83;3.62;;;13.00;46.00;;;;;;20591;6812;311224;-70
2023/03/21 01:22:33;;;;;;;4.40;4.00;;;13.20;45.70;;;;;;20598;6812;306640;-70
2023/03/21 01:24:59;;;;;;;3.70;3.50;;;13.30;45.40;;;;;;20827;6812;117061;-70
2023/03/21 01:27:24;;;;;;;4.32;4.03;;;13.10;45.40;;;;;;20616;6812;305678;-71
2023/03/21 01:29:50;;;;;;;4.60;4.30;;;13.10;45.40;;;;;;20610;6812;280346;-74
2023/03/21 01:32:16;;;;;;;4.10;3.87;;;13.30;45.50;;;;;;20607;6812;310665;-71
2023/03/21 01:34:41;;;;;;;4.07;3.83;;;13.40;45.40;;;;;;20819;6812;117481;-71
2023/03/21 01:37:08;;;;;;;4.00;3.70;;;12.80;45.80;;;;;;20830;6812;117068;-71
2023/03/21 01:39:34;;;;;;;4.33;4.03;;;12.80;45.80;;;;;;20516;6842;322496;-70
2023/03/21 01:41:59;;;;;;;4.30;4.00;;;12.90;46.40;;;;;;20585;6812;309441;-70
2023/03/21 01:44:24;;;;;;;4.07;3.67;;;13.10;46.00;;;;;;20833;6812;117966;-71
2023/03/21 01:46:51;;;;;;;3.92;3.65;;;13.00;45.90;;;;;;20614;6812;277303;-71
2023/03/21 01:49:25;;;;;;;3.30;3.20;;;13.00;46.20;;;;;;20716;6842;118376;-71
2023/03/21 01:51:53;;;;;;;4.22;3.90;;;12.90;46.10;;;;;;20504;6812;277868;-72
2023/03/21 01:54:19;;;;;;;3.73;3.53;;;13.00;46.30;;;;;;20714;6842;121424;-71
2023/03/21 01:56:45;;;;;;;3.97;3.67;;;12.90;46.20;;;;;;20809;6810;117173;-71
2023/03/21 01:59:10;;;;;;;4.10;3.80;;;12.70;46.50;;;;;;20504;6841;312050;-70
2023/03/21 02:01:37;;;;;;;4.93;3.92;;;12.70;46.40;;;;;;20811;6811;116987;-70
2023/03/21 02:04:02;;;;;;;4.32;4.03;;;12.70;46.30;;;;;;20796;6812;123236;-71
2023/03/21 02:06:29;;;;;;;3.80;3.60;;;12.50;46.40;;;;;;20821;6812;120292;-70
2023/03/21 02:08:52;;;;;;;3.97;3.67;;;12.30;46.70;;;;;;20504;6842;338549;-71
2023/03/21 02:11:18;;;;;;;4.07;3.78;;;12.50;46.80;;;;;;20816;6812;116959;-71
2023/03/21 02:13:44;;;;;;;3.65;3.45;;;12.50;46.60;;;;;;20816;6812;117100;-70
2023/03/21 02:16:16;;;;;;;3.95;3.42;;;12.30;46.70;;;;;;20702;6842;122171;-71
2023/03/21 02:18:42;;;;;;;3.90;3.60;;;12.10;46.90;;;;;;20577;6812;277996;-71
2023/03/21 02:21:10;;;;;;;3.87;3.67;;;12.40;47.50;;;;;;20714;6812;117551;-71
2023/03/21 02:24:06;;;;;;;3.20;3.10;;;12.40;47.10;;;;;;20809;6812;117031;-71
2023/03/21 02:26:35;;;;;;;4.03;3.60;;;12.00;47.20;;;;;;20816;6812;117247;-70
2023/03/21 02:29:23;;;;;;;3.80;3.57;;;12.00;47.20;;;;;;20702;6842;117134;-70
2023/03/21 02:32:25;;;;;;;3.67;3.47;;;11.90;47.40;;;;;;20802;6812;117480;-70
2023/03/21 02:35:01;;;;;;;3.70;3.50;;;11.80;47.50;;;;;;20728;6842;117155;-71
2023/03/21 02:37:27;;;;;;;3.60;3.40;;;11.60;47.70;;;;;;20789;6812;117635;-70
2023/03/21 02:40:13;;;;;;;4.13;3.47;;;11.60;47.70;;;;;;20685;6842;123085;-71
2023/03/21 02:43:12;;;;;;;3.80;3.60;;;11.60;47.90;;;;;;20807;6812;117915;-71
2023/03/21 02:45:44;;;;;;;4.03;3.73;;;11.50;48.60;;;;;;20723;6842;117592;-71
2023/03/21 02:48:10;;;;;;;4.40;4.10;;;11.50;48.00;;;;;;20572;6812;318193;-71
2023/03/21 02:50:42;;;;;;;4.40;4.10;;;12.30;48.60;;;;;;20504;6842;343112;-70
2023/03/21 02:53:07;;;;;;;4.20;3.90;;;12.20;47.80;;;;;;20605;6812;281457;-70
2023/03/21 02:55:33;;;;;;;4.57;4.28;;;12.70;47.60;;;;;;20500;6842;308187;-71
2023/03/21 02:57:59;;;;;;;3.53;3.33;;;13.00;46.80;;;;;;20805;6812;117578;-71
2023/03/21 03:00:24;;;;;;;3.83;3.62;;;12.80;46.50;;;;;;20736;6842;120571;-71
2023/03/21 03:02:50;;;;;;;4.60;4.20;;;12.60;46.80;;;;;;20598;6812;340351;-72
2023/03/21 03:05:22;;;;;;;4.05;3.62;;;12.70;46.80;;;;;;20824;6812;117459;-72
2023/03/21 03:08:28;;;;;;;3.90;3.60;;;12.40;46.80;;;;;;20789;6810;117008;-71
2023/03/21 03:11:10;;;;;;;4.00;3.70;;;12.60;46.70;;;;;;20511;6841;308546;-71
2023/03/21 03:13:43;;;;;;;3.47;3.27;;;12.60;46.70;;;;;;20789;6811;118147;-71
2023/03/21 03:16:38;;;;;;;3.50;3.30;;;12.50;46.60;;;;;;20775;6812;117437;-71
2023/03/21 03:19:05;;;;;;;4.00;3.80;;;12.30;46.90;;;;;;20547;6842;307261;-70
2023/03/21 03:21:30;;;;;;;3.73;3.43;;;12.40;47.20;;;;;;20826;6812;116127;-71
2023/03/21 03:23:58;;;;;;;4.00;3.80;;;12.40;47.10;;;;;;20597;6812;280781;-71
2023/03/21 03:26:27;;;;;;;4.10;3.80;;;12.50;47.30;;;;;;20816;6812;120292;-71
2023/03/21 03:28:52;;;;;;;4.57;4.27;;;12.40;47.10;;;;;;20591;6812;306675;-71
2023/03/21 03:31:20;;;;;;;4.33;4.13;;;12.50;47.40;;;;;;20714;6842;117513;-71
2023/03/21 03:33:43;;;;;;;4.25;4.00;;;12.40;47.20;;;;;;20582;6812;276829;-71
2023/03/21 03:36:10;;;;;;;3.97;3.67;;;12.50;47.30;;;;;;20484;6842;441814;-71
2023/03/21 03:38:35;;;;;;;4.00;3.80;;;12.70;47.00;;;;;;20604;6812;334157;-71
2023/03/21 03:41:00;;;;;;;3.90;3.70;;;12.90;46.70;;;;;;20720;6842;119360;-70
2023/03/21 03:43:37;;;;;;;3.87;3.63;;;12.70;46.50;;;;;;20582;6812;314114;-71
2023/03/21 03:46:02;;;;;;;4.03;3.80;;;12.70;47.10;;;;;;20786;6812;117265;-70
2023/03/21 03:48:31;;;;;;;3.67;3.43;;;12.50;47.10;;;;;;20730;6812;117519;-71
2023/03/21 03:51:03;;;;;;;4.07;3.77;;;12.20;47.40;;;;;;20815;6812;119563;-70
2023/03/21 03:53:29;;;;;;;3.67;3.40;;;11.90;47.70;;;;;;20718;6842;117362;-71
2023/03/21 03:55:56;;;;;;;3.45;3.25;;;11.70;48.00;;;;;;20745;6827;118189;-70
2023/03/21 03:58:21;;;;;;;4.80;3.50;;;11.50;48.30;;;;;;20766;6827;117293;-70
2023/03/21 04:00:47;;;;;;;4.03;3.78;;;11.40;48.60;;;;;;20767;6827;117126;-70
2023/03/21 04:03:13;;;;;;;3.67;3.37;;;11.20;48.70;;;;;;20765;6827;117110;-71
2023/03/21 04:05:38;;;;;;;3.30;3.07;;;11.10;48.80;;;;;;20770;6827;117364;-71
2023/03/21 04:08:05;;;;;;;3.70;3.50;;;11.10;49.10;;;;;;20543;6827;313948;-70
2023/03/21 04:10:29;;;;;;;4.00;3.70;;;11.30;49.80;;;;;;20557;6827;308356;-71
2023/03/21 04:12:55;;;;;;;3.73;3.53;;;11.80;49.40;;;;;;20779;6827;120192;-71
2023/03/21 04:15:20;;;;;;;4.03;3.73;;;11.80;48.90;;;;;;20775;6827;117398;-70
2023/03/21 04:17:46;;;;;;;3.53;3.33;;;11.50;48.90;;;;;;20784;6827;122856;-71
2023/03/21 04:20:11;;;;;;;4.23;3.93;;;11.30;49.10;;;;;;20548;6825;286876;-71
2023/03/21 04:22:37;;;;;;;4.23;3.93;;;11.50;49.50;;;;;;20777;6826;117470;-73
2023/03/21 04:25:04;;;;;;;4.50;4.10;;;11.50;49.20;;;;;;20558;6826;313855;-72
2023/03/21 04:27:30;;;;;;;3.70;3.50;;;11.60;49.40;;;;;;20744;6826;117024;-71
2023/03/21 04:29:56;;;;;;;4.30;4.00;;;11.60;49.10;;;;;;20540;6826;307912;-71
2023/03/21 04:32:24;;;;;;;4.60;4.10;;;12.00;49.40;;;;;;20560;6826;278520;-70
2023/03/21 04:34:48;;;;;;;4.40;4.10;;;11.90;48.70;;;;;;20765;6826;117090;-71
2023/03/21 04:37:18;;;;;;;3.73;3.43;;;11.80;48.50;;;;;;20771;6826;117071;-71
2023/03/21 04:39:45;;;;;;;4.13;3.83;;;11.70;49.20;;;;;;20546;6827;310783;-71
2023/03/21 04:42:09;;;;;;;3.80;3.60;;;11.70;49.20;;;;;;20544;6827;311502;-72
2023/03/21 04:44:35;;;;;;;4.23;4.00;;;12.00;48.70;;;;;;20573;6827;296878;-71
2023/03/21 04:47:01;;;;;;;3.83;3.53;;;12.20;48.10;;;;;;20780;6827;117087;-72
2023/03/21 04:49:27;;;;;;;4.27;4.00;;;12.00;48.00;;;;;;20569;6827;297471;-71
2023/03/21 04:51:54;;;;;;;3.93;3.63;;;12.00;48.20;;;;;;20711;6827;127903;-73
2023/03/21 04:54:21;;;;;;;4.10;3.80;;;11.80;48.20;;;;;;20554;6827;297911;-73
2023/03/21 04:56:47;;;;;;;3.90;3.60;;;11.70;48.30;;;;;;20755;6827;117321;-72
2023/03/21 04:59:13;;;;;;;3.80;3.60;;;11.70;48.30;;;;;;20760;6827;118666;-72
2023/03/21 05:01:40;;;;;;;4.03;3.72;;;11.50;48.70;;;;;;20555;6827;337516;-72
2023/03/21 05:04:04;;;;;;;3.60;3.40;;;11.50;49.20;;;;;;20747;6827;121063;-72
2023/03/21 05:06:30;;;;;;;4.55;3.35;;;11.50;49.00;;;;;;20754;6827;121583;-73
2023/03/21 05:08:58;;;;;;;4.28;4.03;;;11.20;49.00;;;;;;20468;6827;278108;-73
2023/03/21 05:11:24;;;;;;;4.60;4.30;;;11.30;49.10;;;;;;20562;6827;283397;-73
2023/03/21 05:13:50;;;;;;;10.97;9.97;;;11.50;48.60;;;;;;20772;6827;117155;-76
2023/03/21 05:16:16;;;;;;;56.77;46.37;;;11.50;48.60;;;;;;20393;6827;302342;-74
2023/03/21 05:18:41;;;;;;;14.98;13.57;;;11.50;48.60;;;;;;20608;6812;279676;-70
2023/03/21 05:21:09;;;;;;;7.37;6.68;;;11.80;48.40;;;;;;20723;6842;117694;-69
2023/03/21 05:23:37;;;;;;;8.33;7.63;;;11.60;48.30;;;;;;20597;6812;306673;-71
2023/03/21 05:25:59;;;;;;;6.00;5.50;;;11.70;48.60;;;;;;20695;6842;117578;-70
2023/03/21 05:28:30;;;;;;;7.80;4.80;;;11.60;48.60;;;;;;20812;6812;118248;-71
2023/03/21 05:30:51;;;;;;;4.77;4.47;;;11.30;48.90;;;;;;20577;6810;311524;-71
2023/03/21 05:33:16;;;;;;;4.10;3.90;;;11.40;49.40;;;;;;20822;6811;120382;-70
2023/03/21 05:35:42;;;;;;;3.90;3.70;;;11.40;49.20;;;;;;20834;6811;117474;-70
2023/03/21 05:38:08;;;;;;;3.77;3.57;;;11.20;49.30;;;;;;20720;6841;144813;-71
2023/03/21 05:40:33;;;;;;;3.80;3.50;;;11.10;49.60;;;;;;20837;6812;120575;-70
2023/03/21 05:42:58;;;;;;;4.10;3.90;;;11.00;49.70;;;;;;20613;6812;335810;-72
2023/03/21 05:45:24;;;;;;;3.80;3.50;;;11.20;50.20;;;;;;20828;6812;117064;-74
2023/03/21 05:47:50;;;;;;;3.60;3.40;;;11.30;49.80;;;;;;20735;6842;117071;-74
2023/03/21 05:50:15;;;;;;;4.20;3.83;;;11.20;49.90;;;;;;20597;6812;306730;-76
2023/03/21 05:52:42;;;;;;;4.33;4.00;;;11.40;49.70;;;;;;20819;6812;117073;-76
2023/03/21 05:55:08;;;;;;;4.45;4.15;;;11.40;49.30;;;;;;20605;6812;312266;-77
2023/03/21 05:57:38;;;;;;;4.33;4.03;;;11.60;49.00;;;;;;20504;6841;342275;-75
2023/03/21 06:00:00;;;;;;;4.60;4.20;;;11.90;48.40;;;;;;20580;6812;309159;-73
2023/03/21 06:02:26;;;;;;;4.17;3.73;;;12.20;48.10;;;;;;20724;6842;117404;-74
2023/03/21 06:04:52;;;;;;;3.80;3.60;;;11.70;48.30;;;;;;20817;6812;117059;-73
2023/03/21 06:07:18;;;;;;;4.87;4.47;;;11.70;48.30;;;;;;20816;6812;118591;-71
2023/03/21 06:09:43;;;;;;;4.50;4.13;;;11.50;48.70;;;;;;20815;6812;117170;-73
2023/03/21 06:12:11;;;;;;;4.20;4.00;;;11.10;49.20;;;;;;20801;6812;117032;-72
2023/03/21 06:14:36;;;;;;;3.87;3.67;;;11.10;49.20;;;;;;20709;6842;117359;-72
2023/03/21 06:17:03;;;;;;;4.27;3.90;;;11.00;49.30;;;;;;20790;6812;117020;-73
2023/03/21 06:19:30;;;;;;;4.03;3.60;;;10.90;49.60;;;;;;20730;6842;117575;-73
2023/03/21 06:21:55;;;;;;;3.90;3.53;;;10.90;49.90;;;;;;20783;6812;119951;-75
2023/03/21 06:24:21;;;;;;;3.80;3.60;;;11.00;50.00;;;;;;20823;6812;121347;-73
2023/03/21 06:26:47;;;;;;;5.03;4.62;;;11.00;50.00;;;;;;20828;6812;118622;-72
2023/03/21 06:29:12;;;;;;;4.17;3.97;;;11.10;50.00;;;;;;20865;6812;116994;-72
2023/03/21 06:31:39;;;;;;;4.67;4.37;;;11.10;50.00;;;;;;20656;6812;306539;-74
2023/03/21 06:34:05;;;;;;;5.00;4.67;;;11.60;50.40;;;;;;20800;6812;121192;-72
2023/03/21 06:36:31;;;;;;;4.80;4.40;;;11.60;49.70;;;;;;20606;6812;307997;-73
2023/03/21 06:38:57;;;;;;;5.22;4.80;;;11.90;49.50;;;;;;20601;6812;311123;-74
2023/03/21 06:41:22;;;;;;;5.43;4.93;;;12.30;48.90;;;;;;20607;6812;279941;-73
2023/03/21 06:43:48;;;;;;;5.93;5.43;;;12.70;48.30;;;;;;20598;6810;311291;-71
2023/03/21 06:46:13;;;;;;;5.30;4.90;;;13.00;47.50;;;;;;20491;6841;308596;-72
2023/03/21 06:48:43;;;;;;;4.82;4.20;;;13.50;46.40;;;;;;20603;6811;306671;-72
2023/03/21 06:51:05;;;;;;;4.00;3.70;;;13.50;46.40;;;;;;20805;6812;121992;-73
2023/03/21 06:53:32;;;;;;;4.53;4.23;;;13.40;46.50;;;;;;20604;6812;307567;-72
2023/03/21 06:55:57;;;;;;;4.15;3.85;;;13.40;46.30;;;;;;20565;6812;306814;-72
2023/03/21 06:58:22;;;;;;;4.70;4.30;;;13.60;46.00;;;;;;20611;6812;277587;-72
2023/03/21 07:00:48;;;;;;;5.40;4.30;;;13.80;45.80;;;;;;20614;6812;306122;-72
2023/03/21 07:03:14;;;;;;;4.07;3.77;;;13.90;45.60;;;;;;20727;6841;117910;-72
2023/03/21 07:05:40;;;;;;;4.45;4.15;;;13.90;45.70;;;;;;20603;6812;343509;-72
2023/03/21 07:08:05;;;;;;;4.70;4.30;;;13.90;45.40;;;;;;20479;6842;324655;-72
2023/03/21 07:10:31;;;;;;;4.30;3.95;;;14.10;45.20;;;;;;20815;6812;117256;-72
2023/03/21 07:13:01;;;;;;;4.40;3.93;;;14.00;45.40;;;;;;20816;6812;117042;-72
2023/03/21 07:15:27;;;;;;;4.57;4.27;;;13.80;45.90;;;;;;20601;6812;311174;-72
2023/03/21 07:17:53;;;;;;;4.07;3.87;;;13.90;45.70;;;;;;20790;6812;117474;-73
2023/03/21 07:20:19;;;;;;;4.67;4.20;;;13.90;45.80;;;;;;20620;6812;311349;-72
2023/03/21 07:22:45;;;;;;;4.17;3.93;;;14.10;45.40;;;;;;20837;6812;117106;-72
2023/03/21 07:25:10;;;;;;;4.18;3.87;;;14.10;45.50;;;;;;20830;6812;117500;-72
2023/03/21 07:27:36;;;;;;;3.87;3.67;;;14.00;45.80;;;;;;20833;6812;117568;-72
2023/03/21 07:30:01;;;;;;;4.55;4.20;;;14.00;46.10;;;;;;20605;6812;306706;-72
2023/03/21 07:32:28;;;;;;;4.13;3.83;;;14.10;46.20;;;;;;20806;6812;121670;-72
2023/03/21 07:34:52;;;;;;;4.90;4.50;;;14.30;45.60;;;;;;20523;6842;342630;-72
2023/03/21 07:37:20;;;;;;;4.18;3.92;;;14.50;45.10;;;;;;20822;6812;120549;-72
2023/03/21 07:39:46;;;;;;;5.60;3.80;;;14.50;45.30;;;;;;20821;6812;117352;-72
2023/03/21 07:42:11;;;;;;;4.50;4.00;;;14.40;45.20;;;;;;20585;6812;311580;-72
2023/03/21 07:44:37;;;;;;;4.47;4.03;;;15.00;44.20;;;;;;20611;6812;294727;-71
2023/03/21 07:47:03;;;;;;;4.57;4.27;;;15.00;44.20;;;;;;20819;6812;117547;-72
2023/03/21 07:49:29;;;;;;;4.27;3.97;;;15.10;44.10;;;;;;20607;6812;276677;-72
2023/03/21 07:51:54;;;;;;;4.20;3.90;;;15.30;43.60;;;;;;20497;6842;278532;-73
2023/03/21 07:54:21;;;;;;;4.35;4.05;;;15.60;42.90;;;;;;20614;6810;278029;-72
2023/03/21 07:56:45;;;;;;;3.50;3.17;;;15.90;42.40;;;;;;20817;6811;120782;-72
2023/03/21 07:59:12;;;;;;;4.70;4.50;;;16.00;42.00;;;;;;20613;6811;277508;-72
2023/03/21 08:01:37;;;;;;;3.70;3.50;;;16.00;41.30;;;;;;20609;6812;306755;-72
2023/03/21 08:04:03;;;;;;;3.07;2.87;;;16.30;41.60;;;;;;20707;6841;117484;-73
2023/03/21 08:06:31;;;;;;;3.53;3.23;;;16.40;41.80;;;;;;20610;6812;281983;-73
2023/03/21 08:08:55;;;;;;;3.43;3.13;;;16.90;40.20;;;;;;20503;6842;321421;-72
2023/03/21 08:11:21;;;;;;;3.30;3.10;;;16.90;40.10;;;;;;20598;6812;334338;-72
2023/03/21 08:13:46;;;;;;;3.60;3.40;;;17.20;39.20;;;;;;20826;6812;117690;-73
2023/03/21 08:16:11;;;;;;;5.32;2.85;;;17.30;39.70;;;;;;20799;6812;117164;-72
2023/03/21 08:18:37;;;;;;;5.82;5.43;;;17.20;40.40;;;;;;20819;6812;117553;-73
2023/03/21 08:21:03;;;;;;;3.28;3.00;;;17.10;40.70;;;;;;20822;6812;117292;-72
2023/03/21 08:23:28;;;;;;;3.40;3.20;;;17.00;40.90;;;;;;20825;6812;117361;-72
2023/03/21 08:25:54;;;;;;;3.17;2.90;;;17.00;41.00;;;;;;20585;6812;338105;-73
2023/03/21 08:28:19;;;;;;;2.90;2.77;;;17.30;38.30;;;;;;20720;6842;117371;-73
2023/03/21 08:30:46;;;;;;;3.00;2.80;;;17.40;38.90;;;;;;20811;6812;117050;-72
2023/03/21 08:33:12;;;;;;;9.23;3.35;;;17.40;39.20;;;;;;20606;6812;311913;-71
2023/03/21 08:35:38;;;;;;;2.57;2.40;;;17.60;38.10;;;;;;20724;6842;118179;-73
2023/03/21 08:38:06;;;;;;;2.55;2.40;;;18.00;37.00;;;;;;20577;6812;312303;-73
2023/03/21 08:40:31;;;;;;;2.63;2.53;;;18.00;37.00;;;;;;20804;6812;123002;-71
2023/03/21 08:42:57;;;;;;;2.60;2.40;;;18.10;37.60;;;;;;20697;6842;117626;-71
2023/03/21 08:45:23;;;;;;;2.75;2.55;;;17.90;37.90;;;;;;20585;6812;312478;-71
2023/03/21 08:47:48;;;;;;;2.80;2.60;;;18.10;37.20;;;;;;20807;6812;117368;-71
2023/03/21 08:50:14;;;;;;;2.80;2.60;;;18.20;37.40;;;;;;20496;6842;278761;-71
2023/03/21 08:52:40;;;;;;;2.80;2.60;;;18.80;35.80;;;;;;20596;6812;307583;-71
2023/03/21 08:55:08;;;;;;;2.20;2.10;;;18.80;35.80;;;;;;20724;6842;117257;-72
2023/03/21 08:57:32;;;;;;;3.83;2.33;;;18.90;36.20;;;;;;20812;6812;116855;-72
2023/03/21 08:59:58;;;;;;;2.20;2.10;;;18.80;36.60;;;;;;20705;6842;120531;-72
2023/03/21 09:02:24;;;;;;;2.77;2.63;;;18.70;37.20;;;;;;20816;6812;118119;-72
2023/03/21 09:04:53;;;;;;;2.65;2.55;;;18.70;37.20;;;;;;20588;6812;341273;-72
2023/03/21 09:07:16;;;;;;;2.57;2.40;;;19.00;34.90;;;;;;20591;6810;282381;-72
2023/03/21 09:09:41;;;;;;;2.30;2.20;;;19.40;33.80;;;;;;20701;6841;117642;-72
2023/03/21 09:12:07;;;;;;;2.70;2.50;;;19.50;34.70;;;;;;20571;6812;310679;-72
2023/03/21 09:14:34;;;;;;;2.58;2.37;;;19.70;34.70;;;;;;20517;6841;337467;-72
2023/03/21 09:16:59;;;;;;;2.47;2.37;;;20.00;34.00;;;;;;20833;6812;117994;-72
2023/03/21 09:19:25;;;;;;;2.87;2.67;;;20.00;34.10;;;;;;20619;6812;276935;-72
2023/03/21 09:21:52;;;;;;;1.63;1.53;;;20.00;33.40;;;;;;20829;6812;117887;-72
2023/03/21 09:24:17;;;;;;;2.40;2.20;;;20.00;34.00;;;;;;20615;6812;307625;-72
2023/03/21 09:26:42;;;;;;;2.37;2.03;;;20.00;33.00;;;;;;20597;6812;307206;-72
2023/03/21 09:29:08;;;;;;;2.10;1.87;;;20.20;31.90;;;;;;20706;6842;117657;-72
2023/03/21 09:31:33;;;;;;;1.70;1.60;;;20.20;32.80;;;;;;20798;6812;119922;-72
2023/03/21 09:33:59;;;;;;;1.90;1.80;;;19.90;33.30;;;;;;20572;6812;279670;-72
2023/03/21 09:36:25;;;;;;;2.03;1.83;;;19.90;32.80;;;;;;20602;6812;339813;-72
2023/03/21 09:38:50;;;;;;;2.22;1.60;;;20.20;32.40;;;;;;20807;6812;117505;-72
2023/03/21 09:41:39;;;;;;;2.33;1.80;;;20.20;33.10;;;;;;20603;6812;278119;-72
2023/03/21 09:44:24;;;;;;;1.97;1.87;;;20.30;32.50;;;;;;20711;6842;118059;-74
2023/03/21 09:47:20;;;;;;;2.10;1.87;;;20.30;33.20;;;;;;20825;6812;120218;-71
2023/03/21 09:49:42;;;;;;;2.10;1.90;;;20.20;33.80;;;;;;20588;6812;307512;-72
2023/03/21 09:52:12;;;;;;;2.00;1.90;;;20.60;33.80;;;;;;20784;6812;126949;-72
2023/03/21 09:54:37;;;;;;;1.80;1.70;;;20.50;33.20;;;;;;20802;6812;121897;-73
2023/03/21 09:57:18;;;;;;;2.03;1.80;;;20.50;33.10;;;;;;20593;6812;307647;-72
2023/03/21 09:59:42;;;;;;;1.50;1.50;;;20.60;31.90;;;;;;20005;6812;122920;-72
2023/03/21 10:02:19;;;;;;;2.30;2.00;;;20.70;32.40;;;;;;20492;6842;308920;-73
2023/03/21 10:04:45;;;;;;;1.80;1.70;;;20.80;31.60;;;;;;20350;6812;338256;-72
2023/03/21 10:07:14;;;;;;;2.30;2.20;;;21.20;30.90;;;;;;20822;6812;117455;-72
2023/03/21 10:09:40;;;;;;;2.00;1.90;;;21.10;31.50;;;;;;20496;6842;313155;-72
2023/03/21 10:12:07;;;;;;;2.23;1.87;;;21.20;30.80;;;;;;20581;6812;278168;-72
2023/03/21 10:14:39;;;;;;;2.00;1.90;;;21.30;31.70;;;;;;20496;6842;308327;-73
2023/03/21 10:17:37;;;;;;;2.10;2.00;;;21.40;30.90;;;;;;20822;6810;117614;-72
2023/03/21 10:20:14;;;;;;;1.90;1.80;;;21.30;31.40;;;;;;20808;6811;120758;-73
2023/03/21 10:22:40;;;;;;;2.30;2.10;;;21.00;32.10;;;;;;20479;6841;337698;-72
2023/03/21 10:25:06;;;;;;;2.07;1.97;;;21.10;31.90;;;;;;20611;6812;295252;-73
2023/03/21 10:27:31;;;;;;;1.60;1.57;;;21.40;31.60;;;;;;20721;6841;117166;-73
2023/03/21 10:29:57;;;;;;;2.20;2.10;;;21.40;32.00;;;;;;20210;6812;287522;-74
2023/03/21 10:32:22;;;;;;;2.80;2.30;;;21.50;30.70;;;;;;20600;6812;311990;-73
2023/03/21 10:34:48;;;;;;;2.70;2.20;;;21.70;31.00;;;;;;20724;6842;117344;-73
2023/03/21 10:37:13;;;;;;;3.10;2.12;;;21.50;31.30;;;;;;20805;6812;117058;-73
2023/03/21 10:39:42;;;;;;;1.90;1.80;;;21.30;31.70;;;;;;20717;6842;121673;-73
2023/03/21 10:42:17;;;;;;;2.57;2.40;;;21.10;32.20;;;;;;20580;6812;278265;-74
2023/03/21 10:44:42;;;;;;;2.30;2.10;;;21.20;31.30;;;;;;20510;6842;279781;-73
2023/03/21 10:47:09;;;;;;;2.57;2.37;;;21.40;31.30;;;;;;20810;6812;121048;-73
2023/03/21 10:49:35;;;;;;;2.73;2.50;;;21.40;31.30;;;;;;20612;6812;311128;-73
2023/03/21 10:52:01;;;;;;;2.23;2.13;;;21.30;31.40;;;;;;20800;6812;118029;-73
2023/03/21 10:54:27;;;;;;;2.55;2.37;;;21.30;32.50;;;;;;20514;6842;281774;-73
2023/03/21 10:56:56;;;;;;;2.70;2.50;;;21.30;31.90;;;;;;20609;6812;344706;-73
2023/03/21 10:59:22;;;;;;;2.20;2.10;;;21.50;31.70;;;;;;20718;6842;117280;-73
2023/03/21 11:01:48;;;;;;;2.63;2.40;;;21.20;31.70;;;;;;20822;6812;117021;-73
2023/03/21 11:04:17;;;;;;;4.17;2.40;;;21.20;31.60;;;;;;20695;6842;117260;-73
2023/03/21 11:06:43;;;;;;;2.50;2.40;;;20.70;32.20;;;;;;20799;6812;117060;-74
2023/03/21 11:09:12;;;;;;;2.23;2.00;;;20.70;32.20;;;;;;20720;6842;119291;-73
2023/03/21 11:11:39;;;;;;;2.40;2.20;;;20.40;32.70;;;;;;20827;6812;67953;-74
2023/03/21 11:14:06;;;;;;;2.20;2.10;;;20.40;32.70;;;;;;20663;6842;121860;-74
2023/03/21 11:16:30;;;;;;;2.40;2.30;;;20.30;33.00;;;;;;20596;6812;306755;-73
2023/03/21 11:18:55;;;;;;;2.65;2.45;;;20.50;33.00;;;;;;20476;6842;297124;-73
2023/03/21 11:21:26;;;;;;;2.08;1.90;;;20.90;31.60;;;;;;20805;6812;117090;-76
2023/03/21 11:23:46;;;;;;;2.13;2.00;;;20.90;31.90;;;;;;20705;6842;118114;-74
2023/03/21 11:26:15;;;;;;;2.37;2.20;;;20.80;32.50;;;;;;20807;6812;120567;-75
2023/03/21 11:28:40;;;;;;;3.73;2.33;;;20.70;32.90;;;;;;20816;6810;117520;-75
2023/03/21 11:31:08;;;;;;;2.60;2.40;;;20.60;33.00;;;;;;20618;6811;310793;-75
2023/03/21 11:33:33;;;;;;;2.50;2.40;;;21.00;32.80;;;;;;20600;6811;280936;-75
2023/03/21 11:36:01;;;;;;;2.63;2.43;;;21.00;32.80;;;;;;20478;6841;307682;-75
2023/03/21 11:38:30;;;;;;;1.97;1.87;;;21.30;31.90;;;;;;20807;6812;121437;-76
2023/03/21 11:40:56;;;;;;;2.30;2.20;;;21.00;32.60;;;;;;20699;6842;117633;-79
2023/03/21 11:43:25;;;;;;;2.10;2.00;;;21.00;32.60;;;;;;20811;6812;117022;-77
2023/03/21 11:45:58;;;;;;;2.10;2.00;;;20.80;32.80;;;;;;20788;6812;116999;-77
2023/03/21 11:48:24;;;;;;;3.15;2.53;;;20.80;32.90;;;;;;20602;6812;298638;-75
2023/03/21 11:50:56;;;;;;;3.27;2.17;;;20.80;32.90;;;;;;20610;6812;280848;-82
2023/03/21 11:53:28;;;;;;;2.60;2.40;;;21.10;32.80;;;;;;20820;6812;117080;-79
2023/03/21 11:56:01;;;;;;;2.40;2.30;;;20.90;33.30;;;;;;20582;6812;280735;-77
2023/03/21 11:58:36;;;;;;;2.73;2.53;;;21.00;33.10;;;;;;20585;6812;311203;-74
2023/03/21 12:01:15;;;;;;;3.03;2.80;;;21.20;32.40;;;;;;20572;6812;307602;-73
2023/03/21 12:03:54;;;;;;;2.65;2.45;;;21.40;32.70;;;;;;20531;6812;308739;-79
2023/03/21 12:06:37;;;;;;;2.60;2.50;;;21.40;32.70;;;;;;20563;6812;307121;-74
2023/03/21 12:09:02;;;;;;;2.80;2.37;;;21.50;31.90;;;;;;20807;6812;117108;-77
2023/03/21 12:11:27;;;;;;;2.62;2.42;;;21.30;32.10;;;;;;20570;6812;336346;-77
2023/03/21 12:14:09;;;;;;;2.75;2.55;;;21.30;32.80;;;;;;20584;6812;310594;-73
2023/03/21 12:17:01;;;;;;;2.80;2.60;;;21.40;33.10;;;;;;20736;6842;118363;-74
2023/03/21 12:19:30;;;;;;;3.10;2.80;;;21.30;33.20;;;;;;20559;6812;280710;-75
2023/03/21 12:22:15;;;;;;;3.20;3.00;;;21.40;33.10;;;;;;20486;6842;309068;-75
2023/03/21 12:24:48;;;;;;;2.73;2.63;;;21.50;32.60;;;;;;20822;6812;117091;-79
2023/03/21 12:27:15;;;;;;;2.97;2.77;;;21.30;32.90;;;;;;20585;6812;277628;-75
2023/03/21 12:30:10;;;;;;;3.00;2.80;;;21.30;32.90;;;;;;20578;6812;306254;-74
2023/03/21 12:33:02;;;;;;;2.53;2.33;;;21.50;32.90;;;;;;20803;6812;117672;-74
2023/03/21 12:35:47;;;;;;;3.17;2.87;;;21.00;33.60;;;;;;20819;6812;117054;-76
2023/03/21 12:38:29;;;;;;;3.33;2.60;;;21.00;33.50;;;;;;20692;6842;117442;-75
2023/03/21 12:41:16;;;;;;;3.20;3.00;;;20.70;33.70;;;;;;20592;6810;337879;-73